createdAt,value
2022-10-13T00:00:55.407Z,23.70
2022-10-13T00:03:22.253Z,23.40
2022-10-13T00:05:50.353Z,23.30
2022-10-13T00:08:20.053Z,23.73
2022-10-13T00:13:15.299Z,22.58
2022-10-13T00:15:44.581Z,22.65
2022-10-13T00:18:11.360Z,22.90
2022-10-13T00:20:43.319Z,21.45
2022-10-13T00:23:10.375Z,21.55
2022-10-13T00:25:45.250Z,21.35
2022-10-13T00:28:12.692Z,21.88
2022-10-13T00:30:40.262Z,21.35
2022-10-13T00:33:07.529Z,21.13
2022-10-13T00:35:34.624Z,20.70
2022-10-13T00:38:01.307Z,21.13
2022-10-13T00:40:28.100Z,20.13
2022-10-13T00:42:54.853Z,21.15
2022-10-13T00:45:27.405Z,20.08
2022-10-13T00:47:57.343Z,20.33
2022-10-13T00:50:30.271Z,17.92
2022-10-13T00:52:57.595Z,19.58
2022-10-13T00:55:26.881Z,19.48
2022-10-13T00:57:55.156Z,19.20
2022-10-13T01:00:25.358Z,19.95
2022-10-13T01:02:52.412Z,18.38
2022-10-13T01:05:20.248Z,17.98
2022-10-13T01:07:50.296Z,18.48
2022-10-13T01:10:26.375Z,17.77
2022-10-13T01:13:00.837Z,18.20
2022-10-13T01:15:38.042Z,16.92
2022-10-13T01:18:34.124Z,17.42
2022-10-13T01:21:25.703Z,17.63
2022-10-13T01:24:33.408Z,17.35
2022-10-13T01:27:08.940Z,16.40
2022-10-13T01:29:50.940Z,16.98
2022-10-13T01:32:42.913Z,17.33
2022-10-13T01:35:45.140Z,17.17
2022-10-13T01:38:28.087Z,15.45
2022-10-13T01:41:20.621Z,17.35
2022-10-13T01:44:09.702Z,16.17
2022-10-13T01:46:38.176Z,16.60
2022-10-13T01:49:07.827Z,15.95
2022-10-13T01:54:01.187Z,14.93
2022-10-13T01:56:27.880Z,14.90
2022-10-13T01:58:56.897Z,15.13
2022-10-13T02:01:51.723Z,14.88
2022-10-13T02:04:27.541Z,14.60
2022-10-13T02:07:12.117Z,14.45
2022-10-13T02:09:55.945Z,14.35
2022-10-13T02:12:37.699Z,14.43
2022-10-13T02:15:05.476Z,14.80
2022-10-13T02:17:32.536Z,14.07
2022-10-13T02:19:59.636Z,13.57
2022-10-13T02:22:30.535Z,14.23
2022-10-13T02:24:57.303Z,13.10
2022-10-13T02:27:24.151Z,13.43
2022-10-13T02:29:53.480Z,13.00
2022-10-13T02:32:21.058Z,14.27
2022-10-13T02:34:48.095Z,13.18
2022-10-13T02:37:14.887Z,13.45
2022-10-13T02:39:41.665Z,12.68
2022-10-13T02:42:08.709Z,12.63
2022-10-13T02:44:35.429Z,13.35
2022-10-13T02:47:02.180Z,12.68
2022-10-13T02:49:28.910Z,12.55
2022-10-13T02:51:55.836Z,12.45
2022-10-13T02:54:22.563Z,11.90
2022-10-13T02:56:49.276Z,11.82
2022-10-13T02:59:16.013Z,12.05
2022-10-13T03:01:44.507Z,12.18
2022-10-13T03:04:11.792Z,11.98
2022-10-13T03:06:38.571Z,11.98
2022-10-13T03:09:05.328Z,12.13
2022-10-13T03:11:32.198Z,12.43
2022-10-13T03:13:58.904Z,11.32
2022-10-13T03:16:25.679Z,11.68
2022-10-13T03:18:52.439Z,11.18
2022-10-13T03:21:19.140Z,11.10
2022-10-13T03:23:45.879Z,11.45
2022-10-13T03:26:12.686Z,11.52
2022-10-13T03:28:39.601Z,11.43
2022-10-13T03:31:08.569Z,11.57
2022-10-13T03:33:35.508Z,11.63
2022-10-13T03:36:05.004Z,10.85
2022-10-13T03:38:33.865Z,10.50
2022-10-13T03:41:11.877Z,11.05
2022-10-13T03:43:39.248Z,11.15
2022-10-13T03:46:07.167Z,10.88
2022-10-13T03:48:35.144Z,10.52
2022-10-13T03:51:14.200Z,10.30
2022-10-13T03:53:40.893Z,10.82
2022-10-13T03:56:08.040Z,10.38
2022-10-13T03:58:35.059Z,10.60
2022-10-13T04:01:06.023Z,9.75
2022-10-13T04:03:33.728Z,9.90
2022-10-13T04:06:02.017Z,10.20
2022-10-13T04:08:30.220Z,9.68
2022-10-13T04:11:04.817Z,9.40
2022-10-13T04:13:31.864Z,9.80
2022-10-13T04:18:44.691Z,9.63
2022-10-13T04:21:14.766Z,9.02
2022-10-13T04:26:15.243Z,9.82
2022-10-13T04:28:42.455Z,9.20
2022-10-13T04:31:09.154Z,8.75
2022-10-13T04:33:36.273Z,9.32
2022-10-13T04:36:07.428Z,9.60
2022-10-13T04:38:34.215Z,8.95
2022-10-13T04:41:05.010Z,8.93
2022-10-13T04:43:32.388Z,8.75
2022-10-13T04:46:05.862Z,8.65
2022-10-13T04:48:32.708Z,8.80
2022-10-13T04:51:04.865Z,8.60
2022-10-13T04:53:32.418Z,8.90
2022-10-13T04:56:03.860Z,8.55
2022-10-13T04:58:31.131Z,8.40
2022-10-13T05:00:58.019Z,7.90
2022-10-13T05:03:25.215Z,8.35
2022-10-13T05:05:52.221Z,8.85
2022-10-13T05:08:19.124Z,8.30
2022-10-13T05:10:55.032Z,8.00
2022-10-13T05:13:21.860Z,68.82
2022-10-13T05:15:48.600Z,50.70
2022-10-13T05:18:15.401Z,51.22
2022-10-13T05:20:42.175Z,48.30
2022-10-13T05:23:08.984Z,44.35
2022-10-13T05:25:36.303Z,42.70
2022-10-13T05:32:59.524Z,29.10
2022-10-13T05:35:26.555Z,27.08
2022-10-13T05:37:53.395Z,26.65
2022-10-13T05:40:22.882Z,24.27
2022-10-13T05:42:52.743Z,22.95
2022-10-13T05:45:20.167Z,22.23
2022-10-13T05:47:46.959Z,21.52
2022-10-13T05:50:13.761Z,20.65
2022-10-13T05:52:41.780Z,20.85
2022-10-13T05:55:10.196Z,20.25
2022-10-13T05:57:41.119Z,19.85
2022-10-13T06:00:09.049Z,18.67
2022-10-13T06:02:44.731Z,18.45
2022-10-13T06:05:15.059Z,17.63
2022-10-13T06:07:42.764Z,19.02
2022-10-13T06:10:10.034Z,49.03
2022-10-13T06:12:36.796Z,51.88
2022-10-13T06:15:04.248Z,46.63
2022-10-13T06:17:31.240Z,44.65
2022-10-13T06:19:59.457Z,39.63
2022-10-13T06:22:26.190Z,35.28
2022-10-13T06:24:52.956Z,32.25
2022-10-13T06:27:19.657Z,29.88
2022-10-13T06:29:46.460Z,27.52
2022-10-13T06:32:13.249Z,26.38
2022-10-13T06:34:39.971Z,26.75
2022-10-13T06:37:06.781Z,24.85
2022-10-13T06:39:33.611Z,23.58
2022-10-13T06:42:00.371Z,23.17
2022-10-13T06:44:27.103Z,24.23
2022-10-13T06:46:53.792Z,22.60
2022-10-13T06:49:21.076Z,22.20
2022-10-13T06:51:47.792Z,21.65
2022-10-13T06:54:14.505Z,21.52
2022-10-13T06:56:41.196Z,20.25
2022-10-13T06:59:08.028Z,20.73
2022-10-13T07:01:37.920Z,19.70
2022-10-13T07:04:08.250Z,19.60
2022-10-13T07:06:34.953Z,19.50
2022-10-13T07:09:05.849Z,19.23
2022-10-13T07:11:33.005Z,18.63
2022-10-13T07:16:31.859Z,79.13
2022-10-13T07:18:58.625Z,72.88
2022-10-13T07:21:25.359Z,59.92
2022-10-13T07:23:52.266Z,54.72
2022-10-13T07:26:19.088Z,47.45
2022-10-13T07:28:45.947Z,40.83
2022-10-13T07:31:21.835Z,36.00
2022-10-13T07:33:50.061Z,34.40
2022-10-13T07:36:17.475Z,32.88
2022-10-13T07:38:44.393Z,31.83
2022-10-13T07:41:12.375Z,29.17
2022-10-13T07:43:39.381Z,28.73
2022-10-13T07:46:07.202Z,28.65
2022-10-13T07:51:08.837Z,26.80
2022-10-13T07:53:36.291Z,25.88
2022-10-13T07:56:04.809Z,25.00
2022-10-13T07:58:31.693Z,25.63
2022-10-13T08:01:00.605Z,24.48
2022-10-13T08:03:28.008Z,74.85
2022-10-13T08:05:55.385Z,70.75
2022-10-13T08:08:22.223Z,58.25
2022-10-13T08:13:16.178Z,44.92
2022-10-13T08:15:44.193Z,40.15
2022-10-13T08:18:12.664Z,35.80
2022-10-13T08:20:44.114Z,34.13
2022-10-13T08:23:12.225Z,32.55
2022-10-13T08:25:42.582Z,31.83
2022-10-13T08:28:29.051Z,30.10
2022-10-13T08:30:59.878Z,30.42
2022-10-13T08:33:27.199Z,29.95
2022-10-13T08:35:54.106Z,28.77
2022-10-13T08:38:20.884Z,27.20
2022-10-13T08:40:49.040Z,26.33
2022-10-13T08:43:19.504Z,26.35
2022-10-13T08:45:47.982Z,25.80
2022-10-13T08:48:19.100Z,26.95
2022-10-13T08:50:49.559Z,24.60
2022-10-13T08:53:24.903Z,25.15
2022-10-13T08:55:58.949Z,25.48
2022-10-13T08:58:31.403Z,23.30
2022-10-13T09:01:07.279Z,23.88
2022-10-13T09:03:44.768Z,22.52
2022-10-13T09:06:32.797Z,24.05
2022-10-13T09:09:05.846Z,23.58
2022-10-13T09:11:38.241Z,21.73
2022-10-13T09:14:08.144Z,22.67
2022-10-13T09:16:38.451Z,22.85
2022-10-13T09:19:23.261Z,21.38
2022-10-13T09:21:52.449Z,24.55
2022-10-13T09:24:21.031Z,24.15
2022-10-13T09:26:49.875Z,22.98
2022-10-13T09:29:26.809Z,22.92
2022-10-13T09:32:16.235Z,21.98
2022-10-13T09:34:43.230Z,21.95
2022-10-13T09:37:25.963Z,20.45
2022-10-13T09:40:12.737Z,20.63
2022-10-13T09:42:39.823Z,20.17
2022-10-13T09:45:16.988Z,21.30
2022-10-13T09:48:13.499Z,20.33
2022-10-13T09:50:49.905Z,20.42
2022-10-13T09:56:39.451Z,19.83
2022-10-13T09:59:33.482Z,17.98
2022-10-13T10:02:04.028Z,20.13
2022-10-13T10:04:36.499Z,18.92
2022-10-13T10:07:11.069Z,19.55
2022-10-13T10:12:29.780Z,18.17
2022-10-13T10:14:56.565Z,18.27
2022-10-13T10:17:46.852Z,17.88
2022-10-13T10:20:25.578Z,17.83
2022-10-13T10:23:16.123Z,17.80
2022-10-13T10:25:46.037Z,17.45
2022-10-13T10:28:40.131Z,16.73
2022-10-13T10:31:17.210Z,16.73
2022-10-13T10:33:59.231Z,17.10
2022-10-13T10:36:41.085Z,16.90
2022-10-13T10:39:18.859Z,15.73
2022-10-13T10:42:09.204Z,16.50
2022-10-13T10:44:36.917Z,15.45
2022-10-13T10:47:22.643Z,16.08
2022-10-13T10:52:54.849Z,15.75
2022-10-13T10:55:47.533Z,15.57
2022-10-13T10:58:36.208Z,15.57
2022-10-13T11:01:25.643Z,14.85
2022-10-13T11:04:04.051Z,14.63
2022-10-13T11:06:36.214Z,14.77
2022-10-13T11:09:05.173Z,14.73
2022-10-13T11:11:42.510Z,14.43
2022-10-13T11:14:09.172Z,13.90
2022-10-13T11:16:38.578Z,13.93
2022-10-13T11:19:06.215Z,13.32
2022-10-13T11:21:54.897Z,14.73
2022-10-13T11:24:33.948Z,14.15
2022-10-13T11:27:12.266Z,13.40
2022-10-13T11:29:49.049Z,14.68
2022-10-13T11:32:27.921Z,14.82
2022-10-13T11:35:02.114Z,13.70
2022-10-13T11:37:55.790Z,13.32
2022-10-13T11:41:03.348Z,13.27
2022-10-13T11:43:57.102Z,13.05
2022-10-13T11:46:26.864Z,12.45
2022-10-13T11:52:03.384Z,13.68
2022-10-13T11:54:41.655Z,13.10
2022-10-13T11:57:19.342Z,12.45
2022-10-13T11:59:48.568Z,12.25
2022-10-13T12:02:18.945Z,13.35
2022-10-13T12:05:00.117Z,17.40
2022-10-13T12:07:32.700Z,19.77
2022-10-13T12:09:59.542Z,17.02
2022-10-13T12:12:26.677Z,16.52
2022-10-13T12:14:55.554Z,14.40
2022-10-13T12:17:33.038Z,12.80
2022-10-13T12:20:04.113Z,13.48
2022-10-13T12:22:31.261Z,13.35
2022-10-13T12:24:59.593Z,11.77
2022-10-13T12:27:27.834Z,13.15
2022-10-13T12:29:54.716Z,12.52
2022-10-13T12:32:23.823Z,14.95
2022-10-13T12:34:50.686Z,15.70
2022-10-13T12:37:33.371Z,14.52
2022-10-13T12:40:00.788Z,14.10
2022-10-13T12:42:35.546Z,13.60
2022-10-13T12:45:02.850Z,12.30
2022-10-13T12:47:45.066Z,11.63
2022-10-13T12:50:22.039Z,12.55
2022-10-13T12:53:13.908Z,12.20
2022-10-13T12:55:55.445Z,11.27
2022-10-13T12:58:36.136Z,10.90
2022-10-13T13:01:11.749Z,10.60
2022-10-13T13:03:40.199Z,10.52
2022-10-13T13:06:22.709Z,10.30
2022-10-13T13:09:27.604Z,10.48
2022-10-13T13:12:26.071Z,9.93
2022-10-13T13:14:55.055Z,9.88
2022-10-13T13:17:45.437Z,10.02
2022-10-13T13:20:33.906Z,9.03
2022-10-13T13:23:01.076Z,9.35
2022-10-13T13:25:28.055Z,9.10
2022-10-13T13:27:54.946Z,9.13
2022-10-13T13:30:23.151Z,9.05
2022-10-13T13:32:50.425Z,8.80
2022-10-13T13:35:17.362Z,9.52
2022-10-13T13:37:49.601Z,9.27
2022-10-13T13:40:25.220Z,8.85
2022-10-13T13:42:52.261Z,8.32
2022-10-13T13:45:21.755Z,8.75
2022-10-13T13:47:48.948Z,9.02
2022-10-13T13:50:25.575Z,8.18
2022-10-13T13:52:52.575Z,8.65
2022-10-13T13:55:19.616Z,8.13
2022-10-13T13:57:46.413Z,8.05
2022-10-13T14:00:14.520Z,7.68
2022-10-13T14:02:42.867Z,7.50
2022-10-13T14:05:10.739Z,6.53
2022-10-13T14:07:37.541Z,5.65
2022-10-13T14:10:05.036Z,5.45
2022-10-13T14:12:32.483Z,5.88
2022-10-13T14:14:59.281Z,5.47
2022-10-13T14:17:27.021Z,5.97
2022-10-13T14:19:54.327Z,5.70
2022-10-13T14:22:22.166Z,6.10
2022-10-13T14:24:49.329Z,6.05
2022-10-13T14:27:16.125Z,5.40
2022-10-13T14:29:43.957Z,6.15
2022-10-13T14:32:10.740Z,5.97
2022-10-13T14:34:37.515Z,5.93
2022-10-13T14:37:04.245Z,6.00
2022-10-13T14:39:30.955Z,5.68
2022-10-13T14:41:57.680Z,6.00
2022-10-13T14:44:24.416Z,5.63
2022-10-13T14:46:51.133Z,5.43
2022-10-13T14:49:17.863Z,5.53
2022-10-13T14:51:44.650Z,6.10
2022-10-13T14:54:12.432Z,23.75
2022-10-13T14:56:39.235Z,24.20
2022-10-13T14:59:07.225Z,19.73
2022-10-13T15:01:34.414Z,15.00
2022-10-13T15:04:01.732Z,12.75
2022-10-13T15:06:29.101Z,11.20
2022-10-13T15:08:56.180Z,11.32
2022-10-13T15:11:23.280Z,10.23
2022-10-13T15:13:50.140Z,9.00
2022-10-13T15:16:25.300Z,9.90
2022-10-13T15:18:52.028Z,9.30
2022-10-13T15:21:19.028Z,8.02
2022-10-13T15:23:45.939Z,8.75
2022-10-13T15:26:13.983Z,8.68
2022-10-13T15:28:43.178Z,8.05
2022-10-13T15:31:10.379Z,7.88
2022-10-13T15:33:37.534Z,7.95
2022-10-13T15:36:04.607Z,7.10
2022-10-13T15:38:31.339Z,7.50
2022-10-13T15:41:01.640Z,8.60
2022-10-13T15:43:28.372Z,7.45
2022-10-13T15:45:59.672Z,8.13
2022-10-13T15:48:26.600Z,6.82
2022-10-13T15:50:53.312Z,6.72
2022-10-13T15:53:20.206Z,6.90
2022-10-13T15:55:47.947Z,6.88
2022-10-13T15:58:15.332Z,7.57
2022-10-13T16:00:42.810Z,6.45
2022-10-13T16:03:17.308Z,6.18
2022-10-13T16:05:45.293Z,6.75
2022-10-13T16:08:12.738Z,6.78
2022-10-13T16:10:41.323Z,6.57
2022-10-13T16:13:08.894Z,6.18
2022-10-13T16:15:35.605Z,6.40
2022-10-13T16:18:02.479Z,6.15
2022-10-13T16:20:34.361Z,5.82
2022-10-13T16:23:01.821Z,6.15
2022-10-13T16:25:29.288Z,5.95
2022-10-13T16:27:56.417Z,5.80
2022-10-13T16:30:23.194Z,6.05
2022-10-13T16:32:49.939Z,6.28
2022-10-13T16:35:16.733Z,5.60
2022-10-13T16:37:43.464Z,5.43
2022-10-13T16:40:10.751Z,5.40
2022-10-13T16:42:37.626Z,5.50
2022-10-13T16:45:04.896Z,6.03
2022-10-13T16:47:31.699Z,18.92
2022-10-13T16:49:58.407Z,29.02
2022-10-13T16:52:25.206Z,26.52
2022-10-13T16:54:51.910Z,20.75
2022-10-13T16:57:18.916Z,17.80
2022-10-13T16:59:45.873Z,15.93
2022-10-13T17:02:15.554Z,15.20
2022-10-13T17:07:12.092Z,13.77
2022-10-13T17:09:38.800Z,12.07
2022-10-13T17:12:06.080Z,11.32
2022-10-13T17:14:32.896Z,10.57
2022-10-13T17:16:59.621Z,11.50
2022-10-13T17:19:26.445Z,10.32
2022-10-13T17:21:53.213Z,10.70
2022-10-13T17:24:19.995Z,11.00
2022-10-13T17:26:49.680Z,10.63
2022-10-13T17:31:43.111Z,10.60
2022-10-13T17:34:09.856Z,10.07
2022-10-13T17:36:36.603Z,9.35
2022-10-13T17:39:06.534Z,10.05
2022-10-13T17:41:33.664Z,9.80
2022-10-13T17:44:00.603Z,9.93
2022-10-13T17:46:38.275Z,9.32
2022-10-13T17:49:07.078Z,10.05
2022-10-13T17:51:33.788Z,10.23
2022-10-13T17:54:00.925Z,10.07
2022-10-13T17:56:28.572Z,9.50
2022-10-13T17:58:55.679Z,10.30
2022-10-13T18:01:27.020Z,9.05
2022-10-13T18:03:55.916Z,17.55
2022-10-13T18:06:23.096Z,46.05
2022-10-13T18:08:50.777Z,36.25
2022-10-13T18:11:20.379Z,28.33
2022-10-13T18:13:47.542Z,26.83
2022-10-13T18:16:17.556Z,24.80
2022-10-13T18:18:45.329Z,24.58
2022-10-13T18:21:14.433Z,23.70
2022-10-13T18:23:41.780Z,20.42
2022-10-13T18:26:12.061Z,21.20
2022-10-13T18:28:40.433Z,19.83
2022-10-13T18:31:18.694Z,18.20
2022-10-13T18:33:45.943Z,18.08
2022-10-13T18:36:24.976Z,16.05
2022-10-13T18:38:53.502Z,15.40
2022-10-13T18:41:22.500Z,43.80
2022-10-13T18:43:49.566Z,56.83
2022-10-13T18:46:16.328Z,39.70
2022-10-13T18:48:43.383Z,62.20
2022-10-13T18:51:12.295Z,72.93
2022-10-13T18:53:41.644Z,60.97
2022-10-13T18:56:13.888Z,59.03
2022-10-13T18:58:41.114Z,53.20
2022-10-13T19:01:17.267Z,44.13
2022-10-13T19:03:44.536Z,40.45
2022-10-13T19:06:13.558Z,37.33
2022-10-13T19:08:40.765Z,35.13
2022-10-13T19:11:18.865Z,32.17
2022-10-13T19:13:46.247Z,30.02
2022-10-13T19:16:14.445Z,29.42
2022-10-13T19:18:41.579Z,27.45
2022-10-13T19:21:09.878Z,27.08
2022-10-13T19:23:36.639Z,23.67
2022-10-13T19:26:14.843Z,23.85
2022-10-13T19:28:42.634Z,23.38
2022-10-13T19:31:15.256Z,22.52
2022-10-13T19:33:44.720Z,21.00
2022-10-13T19:38:48.532Z,20.88
2022-10-13T19:41:15.423Z,19.58
2022-10-13T19:43:42.137Z,20.63
2022-10-13T19:46:09.397Z,20.08
2022-10-13T19:48:36.354Z,18.33
2022-10-13T19:51:07.703Z,18.25
2022-10-13T19:53:34.962Z,18.00
2022-10-13T19:56:01.709Z,17.92
2022-10-13T19:58:28.418Z,16.33
2022-10-13T20:00:55.212Z,17.30
2022-10-13T20:03:22.029Z,16.30
2022-10-13T20:05:48.773Z,23.35
2022-10-13T20:08:15.480Z,35.35
2022-10-13T20:10:43.272Z,28.10
2022-10-13T20:13:11.049Z,22.83
2022-10-13T20:15:42.340Z,22.10
2022-10-13T20:18:10.584Z,19.40
2022-10-13T20:20:37.374Z,19.50
2022-10-13T20:23:04.140Z,18.30
2022-10-13T20:25:30.883Z,17.40
2022-10-13T20:27:57.600Z,17.52
2022-10-13T20:30:24.322Z,16.73
2022-10-13T20:32:51.046Z,17.60
2022-10-13T20:35:17.824Z,15.90
2022-10-13T20:37:44.534Z,15.57
2022-10-13T20:40:11.573Z,15.55
2022-10-13T20:42:38.356Z,15.55
2022-10-13T20:45:05.806Z,15.40
2022-10-13T20:47:32.528Z,15.20
2022-10-13T20:49:59.231Z,48.08
2022-10-13T20:52:25.980Z,50.17
2022-10-13T20:54:52.728Z,38.83
2022-10-13T20:57:19.745Z,30.30
2022-10-13T20:59:46.656Z,28.05
2022-10-13T21:02:13.891Z,25.98
2022-10-13T21:04:40.793Z,24.58
2022-10-13T21:07:07.503Z,22.95
2022-10-13T21:09:37.308Z,21.08
2022-10-13T21:12:04.200Z,19.88
2022-10-13T21:14:30.916Z,19.67
2022-10-13T21:16:57.768Z,19.23
2022-10-13T21:19:25.081Z,18.63
2022-10-13T21:21:51.908Z,18.60
2022-10-13T21:24:18.600Z,47.33
2022-10-13T21:26:45.351Z,48.20
2022-10-13T21:29:12.152Z,37.00
2022-10-13T21:31:38.943Z,31.88
2022-10-13T21:34:05.724Z,28.83
2022-10-13T21:36:33.667Z,25.98
2022-10-13T21:39:03.816Z,25.30
2022-10-13T21:41:30.840Z,22.52
2022-10-13T21:43:57.932Z,22.35
2022-10-13T21:46:27.657Z,21.48
2022-10-13T21:51:24.177Z,20.70
2022-10-13T21:53:53.060Z,20.10
2022-10-13T21:56:20.272Z,19.77
2022-10-13T21:58:47.324Z,19.23
2022-10-13T22:01:14.217Z,18.45
2022-10-13T22:03:41.681Z,17.30
2022-10-13T22:06:18.452Z,17.90
2022-10-13T22:08:47.752Z,16.40
2022-10-13T22:11:15.157Z,16.42
2022-10-13T22:13:41.849Z,17.30
2022-10-13T22:16:09.909Z,16.65
2022-10-13T22:18:36.654Z,16.27
2022-10-13T22:21:05.877Z,15.48
2022-10-13T22:23:33.019Z,16.42
2022-10-13T22:25:59.889Z,16.23
2022-10-13T22:28:26.764Z,14.93
2022-10-13T22:30:53.549Z,15.80
2022-10-13T22:33:20.739Z,15.70
2022-10-13T22:35:47.460Z,14.27
2022-10-13T22:38:14.675Z,15.00
2022-10-13T22:40:41.864Z,14.82
2022-10-13T22:43:08.774Z,13.90
2022-10-13T22:45:35.656Z,14.75
2022-10-13T22:48:02.386Z,14.25
2022-10-13T22:50:29.429Z,14.50
2022-10-13T22:52:56.426Z,14.02
2022-10-13T22:55:23.192Z,13.85
2022-10-13T22:57:49.892Z,13.38
2022-10-13T23:00:16.767Z,12.90
2022-10-13T23:02:43.443Z,12.80
2022-10-13T23:05:10.188Z,12.68
2022-10-13T23:07:36.885Z,13.60
2022-10-13T23:10:04.104Z,12.70
2022-10-13T23:14:57.830Z,13.07
2022-10-13T23:17:24.848Z,12.73
2022-10-13T23:19:51.704Z,12.20
2022-10-13T23:22:18.493Z,11.80
2022-10-13T23:24:45.244Z,12.43
2022-10-13T23:27:11.940Z,10.93
2022-10-13T23:29:38.630Z,11.93
2022-10-13T23:32:09.497Z,11.40
2022-10-13T23:34:36.547Z,11.73
2022-10-13T23:37:03.293Z,11.85
2022-10-13T23:39:30.087Z,12.02
2022-10-13T23:41:56.907Z,12.43
2022-10-13T23:44:23.639Z,11.30
2022-10-13T23:46:50.343Z,11.40
2022-10-13T23:49:17.076Z,10.88
2022-10-13T23:51:44.311Z,11.30
2022-10-13T23:54:11.264Z,11.27
2022-10-13T23:56:38.793Z,10.40
2022-10-13T23:59:05.827Z,10.80
